PWSweather.com
Personal Weather Stations
Station Observations
ANTHEMNP
Anthem North Parkside, Anthem, AZ 85086

Anthem North ParksideAnthem, AZ 85086

Lat: 33.876464, Lon: -112.13861199999997

Elevation: 1930

Station Type: Davis Vantage Vue with Pro 2 console

http://www.azjerry.com/ANPW/wxindex.php

High Low Average
Temperature 110.8°F43.8°C 86.2°F30.1°C 98.6°F37.0°C
Dew Point 53.0°F11.7°C 29.0°F-1.7°C 42.1°F5.6°C
Winds 7.7 mph 12.4 kmh Calm Calm 2.0 mph SSE3.2 kmh SSE
Wind Gusts 17.0 mph27.4 kmh -- 7.0 mph11.3 kmh
Humidity 31% 6% 16%
Pressure 29.84 in1010.5 mb 29.84 in1010.5 mb -
Precipitation 0.00 in0.0 mm - -
Hour Temp Dew Point Humidity Winds Wind Gusts Pressure Precip Precip Rate Daily Precip Total
12:00 AM 94.2°F34.6°C 51.0°F10.6°C 23% Calm Calm 1.0 mph1.6 kmh 29.84 in1010.5 mb 0.00 in0.0 mm 0.00 in0.0 mm 0.00 in0.0 mm
12:10 AM 93.6°F34.2°C 51.0°F10.6°C 23% Calm Calm 1.0 mph1.6 kmh 29.84 in1010.5 mb 0.00 in0.0 mm 0.00 in0.0 mm 0.00 in0.0 mm
12:20 AM 93.5°F34.2°C 51.0°F10.6°C 23% 0.2 mph SE0.3 kmh SE 1.0 mph1.6 kmh 29.84 in1010.5 mb 0.00 in0.0 mm 0.00 in0.0 mm 0.00 in0.0 mm
12:30 AM 93.2°F34.0°C 50.0°F10.0°C 23% Calm Calm 1.0 mph1.6 kmh 29.84 in1010.5 mb 0.00 in0.0 mm 0.00 in0.0 mm 0.00 in0.0 mm
12:40 AM 92.1°F33.4°C 50.0°F10.0°C 24% Calm Calm 1.0 mph1.6 kmh 29.84 in1010.5 mb 0.00 in0.0 mm 0.00 in0.0 mm 0.00 in0.0 mm
12:50 AM 91.6°F33.1°C 50.0°F10.0°C 24% Calm Calm -- 29.84 in1010.5 mb 0.00 in0.0 mm 0.00 in0.0 mm 0.00 in0.0 mm
01:00 AM 90.7°F32.6°C 50.0°F10.0°C 25% Calm Calm -- 29.84 in1010.5 mb 0.00 in0.0 mm 0.00 in0.0 mm 0.00 in0.0 mm
01:10 AM 90.7°F32.6°C 49.0°F9.4°C 24% Calm Calm 1.0 mph1.6 kmh 29.84 in1010.5 mb 0.00 in0.0 mm 0.00 in0.0 mm 0.00 in0.0 mm
01:20 AM 90.3°F32.4°C 50.0°F10.0°C 25% Calm Calm -- 29.84 in1010.5 mb 0.00 in0.0 mm 0.00 in0.0 mm 0.00 in0.0 mm
01:30 AM 89.2°F31.8°C 50.0°F10.0°C 26% Calm Calm -- 29.84 in1010.5 mb 0.00 in0.0 mm 0.00 in0.0 mm 0.00 in0.0 mm
01:40 AM 88.4°F31.3°C 49.0°F9.4°C 26% Calm Calm 1.0 mph1.6 kmh 29.84 in1010.5 mb 0.00 in0.0 mm 0.00 in0.0 mm 0.00 in0.0 mm
01:50 AM 88.4°F31.3°C 49.0°F9.4°C 26% 0.3 mph SE0.5 kmh SE 1.0 mph1.6 kmh 29.84 in1010.5 mb 0.00 in0.0 mm 0.00 in0.0 mm 0.00 in0.0 mm
02:00 AM 88.6°F31.4°C 49.0°F9.4°C 25% 1.0 mph NNE1.6 kmh NNE 2.0 mph3.2 kmh 29.84 in1010.5 mb 0.00 in0.0 mm 0.00 in0.0 mm 0.00 in0.0 mm
02:10 AM 88.7°F31.5°C 49.0°F9.4°C 25% 1.0 mph NE1.6 kmh NE 2.0 mph3.2 kmh 29.84 in1010.5 mb 0.00 in0.0 mm 0.00 in0.0 mm 0.00 in0.0 mm
02:20 AM 88.9°F31.6°C 49.0°F9.4°C 25% 1.3 mph N2.1 kmh N 3.0 mph4.8 kmh 29.84 in1010.5 mb 0.00 in0.0 mm 0.00 in0.0 mm 0.00 in0.0 mm
02:30 AM 88.6°F31.4°C 49.0°F9.4°C 25% 1.2 mph NNE1.9 kmh NNE 3.0 mph4.8 kmh 29.84 in1010.5 mb 0.00 in0.0 mm 0.00 in0.0 mm 0.00 in0.0 mm
02:40 AM 88.4°F31.3°C 49.0°F9.4°C 26% 1.6 mph N2.6 kmh N 3.0 mph4.8 kmh 29.84 in1010.5 mb 0.00 in0.0 mm 0.00 in0.0 mm 0.00 in0.0 mm
02:50 AM 88.4°F31.3°C 49.0°F9.4°C 26% 1.7 mph NE2.7 kmh NE 4.0 mph6.4 kmh 29.84 in1010.5 mb 0.00 in0.0 mm 0.00 in0.0 mm 0.00 in0.0 mm
03:00 AM 88.3°F31.3°C 49.0°F9.4°C 26% 2.5 mph N4.0 kmh N 4.0 mph6.4 kmh 29.84 in1010.5 mb 0.00 in0.0 mm 0.00 in0.0 mm 0.00 in0.0 mm
03:10 AM 88.4°F31.3°C 49.0°F9.4°C 26% 2.3 mph N3.7 kmh N 5.0 mph8.0 kmh 29.84 in1010.5 mb 0.00 in0.0 mm 0.00 in0.0 mm 0.00 in0.0 mm
03:20 AM 88.8°F31.6°C 51.0°F10.6°C 27% 2.9 mph N4.7 kmh N 6.0 mph9.7 kmh 29.84 in1010.5 mb 0.00 in0.0 mm 0.00 in0.0 mm 0.00 in0.0 mm
03:30 AM 88.8°F31.6°C 51.0°F10.6°C 27% 3.7 mph NNE6.0 kmh NNE 7.0 mph11.3 kmh 29.84 in1010.5 mb 0.00 in0.0 mm 0.00 in0.0 mm 0.00 in0.0 mm
03:40 AM 88.8°F31.6°C 51.0°F10.6°C 27% 4.1 mph NE6.6 kmh NE 8.0 mph12.9 kmh 29.84 in1010.5 mb 0.00 in0.0 mm 0.00 in0.0 mm 0.00 in0.0 mm
03:50 AM 89.0°F31.7°C 50.0°F10.0°C 26% 3.5 mph N5.6 kmh N 6.0 mph9.7 kmh 29.84 in1010.5 mb 0.00 in0.0 mm 0.00 in0.0 mm 0.00 in0.0 mm
04:00 AM 88.3°F31.3°C 50.0°F10.0°C 27% 1.9 mph NNE3.1 kmh NNE 4.0 mph6.4 kmh 29.84 in1010.5 mb 0.00 in0.0 mm 0.00 in0.0 mm 0.00 in0.0 mm
04:10 AM 87.4°F30.8°C 50.0°F10.0°C 27% 2.3 mph NNE3.7 kmh NNE 4.0 mph6.4 kmh 29.84 in1010.5 mb 0.00 in0.0 mm 0.00 in0.0 mm 0.00 in0.0 mm
04:20 AM 86.8°F30.4°C 50.0°F10.0°C 28% 1.9 mph NNE3.1 kmh NNE 4.0 mph6.4 kmh 29.84 in1010.5 mb 0.00 in0.0 mm 0.00 in0.0 mm 0.00 in0.0 mm
04:30 AM 86.9°F30.5°C 50.0°F10.0°C 28% 3.3 mph N5.3 kmh N 5.0 mph8.0 kmh 29.84 in1010.5 mb 0.00 in0.0 mm 0.00 in0.0 mm 0.00 in0.0 mm
04:40 AM 86.9°F30.5°C 50.0°F10.0°C 28% 3.1 mph NNE5.0 kmh NNE 6.0 mph9.7 kmh 29.84 in1010.5 mb 0.00 in0.0 mm 0.00 in0.0 mm 0.00 in0.0 mm
04:50 AM 87.1°F30.6°C 49.0°F9.4°C 27% 3.6 mph NNW5.8 kmh NNW 5.0 mph8.0 kmh 29.84 in1010.5 mb 0.00 in0.0 mm 0.00 in0.0 mm 0.00 in0.0 mm
05:00 AM 86.9°F30.5°C 49.0°F9.4°C 27% 4.0 mph N6.4 kmh N 6.0 mph9.7 kmh 29.84 in1010.5 mb 0.00 in0.0 mm 0.00 in0.0 mm 0.00 in0.0 mm
05:10 AM 86.4°F30.2°C 50.0°F10.0°C 28% 2.6 mph NNW4.2 kmh NNW 7.0 mph11.3 kmh 29.84 in1010.5 mb 0.00 in0.0 mm 0.00 in0.0 mm 0.00 in0.0 mm
05:20 AM 86.7°F30.4°C 49.0°F9.4°C 27% 3.0 mph NNE4.8 kmh NNE 6.0 mph9.7 kmh 29.84 in1010.5 mb 0.00 in0.0 mm 0.00 in0.0 mm 0.00 in0.0 mm
05:30 AM 86.6°F30.3°C 49.0°F9.4°C 27% 1.9 mph N3.1 kmh N 4.0 mph6.4 kmh 29.84 in1010.5 mb 0.00 in0.0 mm 0.00 in0.0 mm 0.00 in0.0 mm
05:40 AM 86.8°F30.4°C 49.0°F9.4°C 27% 1.4 mph NE2.3 kmh NE 4.0 mph6.4 kmh 29.84 in1010.5 mb 0.00 in0.0 mm 0.00 in0.0 mm 0.00 in0.0 mm
05:50 AM 86.3°F30.2°C 49.0°F9.4°C 27% 1.5 mph NNE2.4 kmh NNE 4.0 mph6.4 kmh 29.84 in1010.5 mb 0.00 in0.0 mm 0.00 in0.0 mm 0.00 in0.0 mm
06:00 AM 86.3°F30.2°C 49.0°F9.4°C 27% 3.2 mph NE5.1 kmh NE 5.0 mph8.0 kmh 29.84 in1010.5 mb 0.00 in0.0 mm 0.00 in0.0 mm 0.00 in0.0 mm
06:10 AM 86.2°F30.1°C 48.0°F8.9°C 27% 2.1 mph N3.4 kmh N 4.0 mph6.4 kmh 29.84 in1010.5 mb 0.00 in0.0 mm 0.00 in0.0 mm 0.00 in0.0 mm
06:20 AM 86.3°F30.2°C 50.0°F10.0°C 28% 1.0 mph N1.6 kmh N 3.0 mph4.8 kmh 29.84 in1010.5 mb 0.00 in0.0 mm 0.00 in0.0 mm 0.00 in0.0 mm
06:30 AM 86.3°F30.2°C 50.0°F10.0°C 28% 0.9 mph NNE1.4 kmh NNE 2.0 mph3.2 kmh 29.84 in1010.5 mb 0.00 in0.0 mm 0.00 in0.0 mm 0.00 in0.0 mm
06:40 AM 87.1°F30.6°C 49.0°F9.4°C 27% 0.5 mph NNE0.8 kmh NNE 1.0 mph1.6 kmh 29.84 in1010.5 mb 0.00 in0.0 mm 0.00 in0.0 mm 0.00 in0.0 mm
06:50 AM 87.0°F30.6°C 51.0°F10.6°C 29% Calm Calm 1.0 mph1.6 kmh 29.84 in1010.5 mb 0.00 in0.0 mm 0.00 in0.0 mm 0.00 in0.0 mm
07:00 AM 86.5°F30.3°C 51.0°F10.6°C 29% Calm Calm -- 29.84 in1010.5 mb 0.00 in0.0 mm 0.00 in0.0 mm 0.00 in0.0 mm
07:10 AM 87.4°F30.8°C 53.0°F11.7°C 31% Calm Calm -- 29.84 in1010.5 mb 0.00 in0.0 mm 0.00 in0.0 mm 0.00 in0.0 mm
07:20 AM 89.5°F31.9°C 51.0°F10.6°C 27% 0.3 mph SE0.5 kmh SE 2.0 mph3.2 kmh 29.84 in1010.5 mb 0.00 in0.0 mm 0.00 in0.0 mm 0.00 in0.0 mm
07:30 AM 92.8°F33.8°C 52.0°F11.1°C 25% 1.0 mph SE1.6 kmh SE 5.0 mph8.0 kmh 29.84 in1010.5 mb 0.00 in0.0 mm 0.00 in0.0 mm 0.00 in0.0 mm
07:40 AM 94.2°F34.6°C 52.0°F11.1°C 24% 1.3 mph ESE2.1 kmh ESE 5.0 mph8.0 kmh 29.84 in1010.5 mb 0.00 in0.0 mm 0.00 in0.0 mm 0.00 in0.0 mm
07:50 AM 95.1°F35.1°C 53.0°F11.7°C 24% 2.5 mph SSE4.0 kmh SSE 7.0 mph11.3 kmh 29.84 in1010.5 mb 0.00 in0.0 mm 0.00 in0.0 mm 0.00 in0.0 mm
08:00 AM 95.6°F35.3°C 53.0°F11.7°C 24% 2.7 mph ESE4.3 kmh ESE 7.0 mph11.3 kmh 29.84 in1010.5 mb 0.00 in0.0 mm 0.00 in0.0 mm 0.00 in0.0 mm
08:10 AM 96.6°F35.9°C 52.0°F11.1°C 22% 1.7 mph SE2.7 kmh SE 6.0 mph9.7 kmh 29.84 in1010.5 mb 0.00 in0.0 mm 0.00 in0.0 mm 0.00 in0.0 mm
08:20 AM 96.6°F35.9°C 51.0°F10.6°C 21% 2.9 mph SE4.7 kmh SE 7.0 mph11.3 kmh 29.84 in1010.5 mb 0.00 in0.0 mm 0.00 in0.0 mm 0.00 in0.0 mm
08:30 AM 97.0°F36.1°C 50.0°F10.0°C 20% 3.1 mph SE5.0 kmh SE 8.0 mph12.9 kmh 29.84 in1010.5 mb 0.00 in0.0 mm 0.00 in0.0 mm 0.00 in0.0 mm
08:40 AM 97.7°F36.5°C 48.0°F8.9°C 18% 2.9 mph SSE4.7 kmh SSE 7.0 mph11.3 kmh 29.84 in1010.5 mb 0.00 in0.0 mm 0.00 in0.0 mm 0.00 in0.0 mm
08:50 AM 98.4°F36.9°C 47.0°F8.3°C 17% 2.0 mph SE3.2 kmh SE 7.0 mph11.3 kmh 29.84 in1010.5 mb 0.00 in0.0 mm 0.00 in0.0 mm 0.00 in0.0 mm
09:00 AM 99.0°F37.2°C 45.0°F7.2°C 16% 2.3 mph WSW3.7 kmh WSW 8.0 mph12.9 kmh 29.84 in1010.5 mb 0.00 in0.0 mm 0.00 in0.0 mm 0.00 in0.0 mm
09:10 AM 99.0°F37.2°C 44.0°F6.7°C 15% 2.5 mph SSW4.0 kmh SSW 7.0 mph11.3 kmh 29.84 in1010.5 mb 0.00 in0.0 mm 0.00 in0.0 mm 0.00 in0.0 mm
09:20 AM 100.3°F37.9°C 43.0°F6.1°C 14% 2.1 mph SW3.4 kmh SW 5.0 mph8.0 kmh 29.84 in1010.5 mb 0.00 in0.0 mm 0.00 in0.0 mm 0.00 in0.0 mm
09:30 AM 100.2°F37.9°C 43.0°F6.1°C 14% 3.5 mph SE5.6 kmh SE 7.0 mph11.3 kmh 29.84 in1010.5 mb 0.00 in0.0 mm 0.00 in0.0 mm 0.00 in0.0 mm
09:40 AM 100.2°F37.9°C 43.0°F6.1°C 14% 3.6 mph SSW5.8 kmh SSW 7.0 mph11.3 kmh 29.84 in1010.5 mb 0.00 in0.0 mm 0.00 in0.0 mm 0.00 in0.0 mm
09:50 AM 100.6°F38.1°C 43.0°F6.1°C 14% 3.3 mph SE5.3 kmh SE 7.0 mph11.3 kmh 29.84 in1010.5 mb 0.00 in0.0 mm 0.00 in0.0 mm 0.00 in0.0 mm
10:00 AM 100.9°F38.3°C 44.0°F6.7°C 14% 3.3 mph S5.3 kmh S 7.0 mph11.3 kmh 29.84 in1010.5 mb 0.00 in0.0 mm 0.00 in0.0 mm 0.00 in0.0 mm
10:10 AM 102.2°F39.0°C 45.0°F7.2°C 14% 2.4 mph SSW3.9 kmh SSW 6.0 mph9.7 kmh 29.84 in1010.5 mb 0.00 in0.0 mm 0.00 in0.0 mm 0.00 in0.0 mm
10:20 AM 102.3°F39.1°C 45.0°F7.2°C 14% 2.9 mph SW4.7 kmh SW 7.0 mph11.3 kmh 29.84 in1010.5 mb 0.00 in0.0 mm 0.00 in0.0 mm 0.00 in0.0 mm
10:30 AM 102.7°F39.3°C 41.0°F5.0°C 12% 3.1 mph SE5.0 kmh SE 8.0 mph12.9 kmh 29.84 in1010.5 mb 0.00 in0.0 mm 0.00 in0.0 mm 0.00 in0.0 mm
10:40 AM 103.1°F39.5°C 41.0°F5.0°C 12% 3.0 mph S4.8 kmh S 8.0 mph12.9 kmh 29.84 in1010.5 mb 0.00 in0.0 mm 0.00 in0.0 mm 0.00 in0.0 mm
10:50 AM 102.9°F39.4°C 41.0°F5.0°C 12% 3.5 mph SE5.6 kmh SE 7.0 mph11.3 kmh 29.84 in1010.5 mb 0.00 in0.0 mm 0.00 in0.0 mm 0.00 in0.0 mm
11:00 AM 104.6°F40.3°C 40.0°F4.4°C 11% 1.6 mph SE2.6 kmh SE 5.0 mph8.0 kmh 29.84 in1010.5 mb 0.00 in0.0 mm 0.00 in0.0 mm 0.00 in0.0 mm
11:10 AM 104.3°F40.2°C 40.0°F4.4°C 11% 3.4 mph S5.5 kmh S 9.0 mph14.5 kmh 29.84 in1010.5 mb 0.00 in0.0 mm 0.00 in0.0 mm 0.00 in0.0 mm
11:20 AM 105.2°F40.7°C 38.0°F3.3°C 10% 2.6 mph SE4.2 kmh SE 8.0 mph12.9 kmh 29.84 in1010.5 mb 0.00 in0.0 mm 0.00 in0.0 mm 0.00 in0.0 mm
11:30 AM 105.3°F40.7°C 38.0°F3.3°C 10% 3.4 mph SE5.5 kmh SE 10.0 mph16.1 kmh 29.84 in1010.5 mb 0.00 in0.0 mm 0.00 in0.0 mm 0.00 in0.0 mm
11:40 AM 106.0°F41.1°C 39.0°F3.9°C 10% 2.9 mph SW4.7 kmh SW 8.0 mph12.9 kmh 29.84 in1010.5 mb 0.00 in0.0 mm 0.00 in0.0 mm 0.00 in0.0 mm
11:50 AM 105.9°F41.1°C 33.0°F0.6°C 8% 2.4 mph SSW3.9 kmh SSW 8.0 mph12.9 kmh 29.84 in1010.5 mb 0.00 in0.0 mm 0.00 in0.0 mm 0.00 in0.0 mm
12:00 PM 106.7°F41.5°C 34.0°F1.1°C 8% 3.2 mph SW5.1 kmh SW 9.0 mph14.5 kmh 29.84 in1010.5 mb 0.00 in0.0 mm 0.00 in0.0 mm 0.00 in0.0 mm
12:10 PM 106.9°F41.6°C 34.0°F1.1°C 8% 3.5 mph SW5.6 kmh SW 10.0 mph16.1 kmh 29.84 in1010.5 mb 0.00 in0.0 mm 0.00 in0.0 mm 0.00 in0.0 mm
12:20 PM 106.7°F41.5°C 34.0°F1.1°C 8% 2.8 mph S4.5 kmh S 11.0 mph17.7 kmh 29.84 in1010.5 mb 0.00 in0.0 mm 0.00 in0.0 mm 0.00 in0.0 mm
12:30 PM 107.4°F41.9°C 34.0°F1.1°C 8% 4.0 mph S6.4 kmh S 9.0 mph14.5 kmh 29.84 in1010.5 mb 0.00 in0.0 mm 0.00 in0.0 mm 0.00 in0.0 mm
12:40 PM 107.4°F41.9°C 34.0°F1.1°C 8% 3.5 mph S5.6 kmh S 13.0 mph20.9 kmh 29.84 in1010.5 mb 0.00 in0.0 mm 0.00 in0.0 mm 0.00 in0.0 mm
12:50 PM 107.0°F41.7°C 34.0°F1.1°C 8% 5.9 mph SSW9.5 kmh SSW 12.0 mph19.3 kmh 29.84 in1010.5 mb 0.00 in0.0 mm 0.00 in0.0 mm 0.00 in0.0 mm
01:00 PM 108.0°F42.2°C 35.0°F1.7°C 8% 2.9 mph WSW4.7 kmh WSW 8.0 mph12.9 kmh 29.84 in1010.5 mb 0.00 in0.0 mm 0.00 in0.0 mm 0.00 in0.0 mm
01:10 PM 107.8°F42.1°C 35.0°F1.7°C 8% 5.5 mph WSW8.9 kmh WSW 16.0 mph25.7 kmh 29.84 in1010.5 mb 0.00 in0.0 mm 0.00 in0.0 mm 0.00 in0.0 mm
01:20 PM 107.2°F41.8°C 34.0°F1.1°C 8% 5.4 mph SW8.7 kmh SW 11.0 mph17.7 kmh 29.84 in1010.5 mb 0.00 in0.0 mm 0.00 in0.0 mm 0.00 in0.0 mm
01:30 PM 108.0°F42.2°C 35.0°F1.7°C 8% 1.2 mph ENE1.9 kmh ENE 10.0 mph16.1 kmh 29.84 in1010.5 mb 0.00 in0.0 mm 0.00 in0.0 mm 0.00 in0.0 mm
01:40 PM 108.7°F42.6°C 32.0°F0.0°C 7% 4.3 mph SW6.9 kmh SW 13.0 mph20.9 kmh 29.84 in1010.5 mb 0.00 in0.0 mm 0.00 in0.0 mm 0.00 in0.0 mm
01:50 PM 108.7°F42.6°C 32.0°F0.0°C 7% 4.3 mph SSE6.9 kmh SSE 9.0 mph14.5 kmh 29.84 in1010.5 mb 0.00 in0.0 mm 0.00 in0.0 mm 0.00 in0.0 mm
02:00 PM 109.2°F42.9°C 32.0°F0.0°C 7% 6.4 mph SW10.3 kmh SW 14.0 mph22.5 kmh 29.84 in1010.5 mb 0.00 in0.0 mm 0.00 in0.0 mm 0.00 in0.0 mm
02:10 PM 109.5°F43.1°C 29.0°F-1.7°C 6% 5.0 mph S8.0 kmh S 13.0 mph20.9 kmh 29.84 in1010.5 mb 0.00 in0.0 mm 0.00 in0.0 mm 0.00 in0.0 mm
02:20 PM 109.4°F43.0°C 29.0°F-1.7°C 6% 5.4 mph SW8.7 kmh SW 11.0 mph17.7 kmh 29.84 in1010.5 mb 0.00 in0.0 mm 0.00 in0.0 mm 0.00 in0.0 mm
02:30 PM 110.4°F43.6°C 29.0°F-1.7°C 6% 1.9 mph WNW3.1 kmh WNW 7.0 mph11.3 kmh 29.84 in1010.5 mb 0.00 in0.0 mm 0.00 in0.0 mm 0.00 in0.0 mm
02:40 PM 110.2°F43.4°C 29.0°F-1.7°C 6% 2.0 mph NNW3.2 kmh NNW 9.0 mph14.5 kmh 29.84 in1010.5 mb 0.00 in0.0 mm 0.00 in0.0 mm 0.00 in0.0 mm
02:50 PM 110.1°F43.4°C 29.0°F-1.7°C 6% 5.3 mph SW8.5 kmh SW 14.0 mph22.5 kmh 29.84 in1010.5 mb 0.00 in0.0 mm 0.00 in0.0 mm 0.00 in0.0 mm
03:00 PM 110.8°F43.8°C 30.0°F-1.1°C 6% 2.1 mph NNW3.4 kmh NNW 10.0 mph16.1 kmh 29.84 in1010.5 mb 0.00 in0.0 mm 0.00 in0.0 mm 0.00 in0.0 mm
03:10 PM 110.2°F43.4°C 29.0°F-1.7°C 6% 6.1 mph SSW9.8 kmh SSW 14.0 mph22.5 kmh 29.84 in1010.5 mb 0.00 in0.0 mm 0.00 in0.0 mm 0.00 in0.0 mm
03:20 PM 109.9°F43.3°C 33.0°F0.6°C 7% 4.6 mph SW7.4 kmh SW 16.0 mph25.7 kmh 29.84 in1010.5 mb 0.00 in0.0 mm 0.00 in0.0 mm 0.00 in0.0 mm
03:30 PM 109.7°F43.2°C 33.0°F0.6°C 7% 5.4 mph SW8.7 kmh SW 17.0 mph27.4 kmh 29.84 in1010.5 mb 0.00 in0.0 mm 0.00 in0.0 mm 0.00 in0.0 mm
03:40 PM 109.4°F43.0°C 33.0°F0.6°C 7% 4.3 mph SW6.9 kmh SW 13.0 mph20.9 kmh 29.84 in1010.5 mb 0.00 in0.0 mm 0.00 in0.0 mm 0.00 in0.0 mm
03:50 PM 109.8°F43.2°C 33.0°F0.6°C 7% 3.4 mph SW5.5 kmh SW 13.0 mph20.9 kmh 29.84 in1010.5 mb 0.00 in0.0 mm 0.00 in0.0 mm 0.00 in0.0 mm
04:00 PM 109.4°F43.0°C 33.0°F0.6°C 7% 7.7 mph SW12.4 kmh SW 15.0 mph24.1 kmh 29.84 in1010.5 mb 0.00 in0.0 mm 0.00 in0.0 mm 0.00 in0.0 mm
04:10 PM 108.8°F42.7°C 32.0°F0.0°C 7% 7.5 mph SW12.1 kmh SW 16.0 mph25.7 kmh 29.84 in1010.5 mb 0.00 in0.0 mm 0.00 in0.0 mm 0.00 in0.0 mm
04:20 PM 108.1°F42.3°C 32.0°F0.0°C 7% 5.8 mph S9.3 kmh S 17.0 mph27.4 kmh 29.84 in1010.5 mb 0.00 in0.0 mm 0.00 in0.0 mm 0.00 in0.0 mm
04:30 PM 108.9°F42.7°C 36.0°F2.2°C 8% 1.4 mph S2.3 kmh S 11.0 mph17.7 kmh 29.84 in1010.5 mb 0.00 in0.0 mm 0.00 in0.0 mm 0.00 in0.0 mm
04:40 PM 108.9°F42.7°C 32.0°F0.0°C 7% 3.8 mph SSW6.1 kmh SSW 13.0 mph20.9 kmh 29.84 in1010.5 mb 0.00 in0.0 mm 0.00 in0.0 mm 0.00 in0.0 mm
04:50 PM 108.1°F42.3°C 32.0°F0.0°C 7% 4.5 mph SSW7.2 kmh SSW 11.0 mph17.7 kmh 29.84 in1010.5 mb 0.00 in0.0 mm 0.00 in0.0 mm 0.00 in0.0 mm
05:00 PM 107.9°F42.2°C 35.0°F1.7°C 8% 4.5 mph SSW7.2 kmh SSW 13.0 mph20.9 kmh 29.84 in1010.5 mb 0.00 in0.0 mm 0.00 in0.0 mm 0.00 in0.0 mm
05:10 PM 108.1°F42.3°C 35.0°F1.7°C 8% 5.1 mph SW8.2 kmh SW 9.0 mph14.5 kmh 29.84 in1010.5 mb 0.00 in0.0 mm 0.00 in0.0 mm 0.00 in0.0 mm
05:20 PM 107.9°F42.2°C 31.0°F-0.6°C 7% 3.3 mph SSW5.3 kmh SSW 8.0 mph12.9 kmh 29.84 in1010.5 mb 0.00 in0.0 mm 0.00 in0.0 mm 0.00 in0.0 mm
05:30 PM 107.6°F42.0°C 35.0°F1.7°C 8% 4.4 mph S7.1 kmh S 13.0 mph20.9 kmh 29.84 in1010.5 mb 0.00 in0.0 mm 0.00 in0.0 mm 0.00 in0.0 mm
05:40 PM 107.3°F41.8°C 34.0°F1.1°C 8% 2.0 mph SE3.2 kmh SE 5.0 mph8.0 kmh 29.84 in1010.5 mb 0.00 in0.0 mm 0.00 in0.0 mm 0.00 in0.0 mm
05:50 PM 107.0°F41.7°C 34.0°F1.1°C 8% 2.0 mph SE3.2 kmh SE 8.0 mph12.9 kmh 29.84 in1010.5 mb 0.00 in0.0 mm 0.00 in0.0 mm 0.00 in0.0 mm
06:00 PM 106.8°F41.6°C 31.0°F-0.6°C 7% 3.9 mph S6.3 kmh S 10.0 mph16.1 kmh 29.84 in1010.5 mb 0.00 in0.0 mm 0.00 in0.0 mm 0.00 in0.0 mm
06:10 PM 106.4°F41.3°C 30.0°F-1.1°C 7% 5.1 mph NW8.2 kmh NW 13.0 mph20.9 kmh 29.84 in1010.5 mb 0.00 in0.0 mm 0.00 in0.0 mm 0.00 in0.0 mm
06:20 PM 106.3°F41.3°C 34.0°F1.1°C 8% 2.5 mph SW4.0 kmh SW 14.0 mph22.5 kmh 29.84 in1010.5 mb 0.00 in0.0 mm 0.00 in0.0 mm 0.00 in0.0 mm
06:30 PM 105.8°F41.0°C 33.0°F0.6°C 8% 0.8 mph SW1.3 kmh SW 5.0 mph8.0 kmh 29.84 in1010.5 mb 0.00 in0.0 mm 0.00 in0.0 mm 0.00 in0.0 mm
06:40 PM 105.7°F40.9°C 33.0°F0.6°C 8% 2.0 mph NW3.2 kmh NW 9.0 mph14.5 kmh 29.84 in1010.5 mb 0.00 in0.0 mm 0.00 in0.0 mm 0.00 in0.0 mm
06:50 PM 105.3°F40.7°C 33.0°F0.6°C 8% 2.3 mph SW3.7 kmh SW 7.0 mph11.3 kmh 29.84 in1010.5 mb 0.00 in0.0 mm 0.00 in0.0 mm 0.00 in0.0 mm
07:00 PM 105.1°F40.6°C 33.0°F0.6°C 8% 1.9 mph SW3.1 kmh SW 9.0 mph14.5 kmh 29.84 in1010.5 mb 0.00 in0.0 mm 0.00 in0.0 mm 0.00 in0.0 mm
07:10 PM 104.7°F40.4°C 35.0°F1.7°C 9% 0.8 mph NNW1.3 kmh NNW 8.0 mph12.9 kmh 29.84 in1010.5 mb 0.00 in0.0 mm 0.00 in0.0 mm 0.00 in0.0 mm
07:20 PM 104.2°F40.1°C 35.0°F1.7°C 9% 2.9 mph SW4.7 kmh SW 10.0 mph16.1 kmh 29.84 in1010.5 mb 0.00 in0.0 mm 0.00 in0.0 mm 0.00 in0.0 mm
07:30 PM 103.8°F39.9°C 37.0°F2.8°C 10% 4.3 mph SW6.9 kmh SW 12.0 mph19.3 kmh 29.84 in1010.5 mb 0.00 in0.0 mm 0.00 in0.0 mm 0.00 in0.0 mm
07:40 PM 103.3°F39.6°C 37.0°F2.8°C 10% 3.4 mph SW5.5 kmh SW 10.0 mph16.1 kmh 29.84 in1010.5 mb 0.00 in0.0 mm 0.00 in0.0 mm 0.00 in0.0 mm
07:50 PM 102.7°F39.3°C 39.0°F3.9°C 11% 0.5 mph SW0.8 kmh SW 7.0 mph11.3 kmh 29.84 in1010.5 mb 0.00 in0.0 mm 0.00 in0.0 mm 0.00 in0.0 mm
08:00 PM 101.9°F38.8°C 38.0°F3.3°C 11% 1.0 mph S1.6 kmh S 5.0 mph8.0 kmh 29.84 in1010.5 mb 0.00 in0.0 mm 0.00 in0.0 mm 0.00 in0.0 mm
08:10 PM 101.6°F38.7°C 38.0°F3.3°C 11% 1.2 mph SSW1.9 kmh SSW 5.0 mph8.0 kmh 29.84 in1010.5 mb 0.00 in0.0 mm 0.00 in0.0 mm 0.00 in0.0 mm
08:20 PM 101.1°F38.4°C 40.0°F4.4°C 12% 1.6 mph SW2.6 kmh SW 4.0 mph6.4 kmh 29.84 in1010.5 mb 0.00 in0.0 mm 0.00 in0.0 mm 0.00 in0.0 mm
08:30 PM 100.7°F38.2°C 39.0°F3.9°C 12% 2.3 mph SW3.7 kmh SW 6.0 mph9.7 kmh 29.84 in1010.5 mb 0.00 in0.0 mm 0.00 in0.0 mm 0.00 in0.0 mm
08:40 PM 100.4°F38.0°C 41.0°F5.0°C 13% 2.5 mph SSW4.0 kmh SSW 8.0 mph12.9 kmh 29.84 in1010.5 mb 0.00 in0.0 mm 0.00 in0.0 mm 0.00 in0.0 mm
08:50 PM 100.0°F37.8°C 41.0°F5.0°C 13% 2.0 mph SW3.2 kmh SW 5.0 mph8.0 kmh 29.84 in1010.5 mb 0.00 in0.0 mm 0.00 in0.0 mm 0.00 in0.0 mm
09:00 PM 99.7°F37.6°C 41.0°F5.0°C 13% 1.5 mph SSW2.4 kmh SSW 6.0 mph9.7 kmh 29.84 in1010.5 mb 0.00 in0.0 mm 0.00 in0.0 mm 0.00 in0.0 mm
09:10 PM 99.3°F37.4°C 40.0°F4.4°C 13% 1.5 mph S2.4 kmh S 6.0 mph9.7 kmh 29.84 in1010.5 mb 0.00 in0.0 mm 0.00 in0.0 mm 0.00 in0.0 mm
09:20 PM 98.8°F37.1°C 42.0°F5.6°C 14% 0.9 mph SW1.4 kmh SW 3.0 mph4.8 kmh 29.84 in1010.5 mb 0.00 in0.0 mm 0.00 in0.0 mm 0.00 in0.0 mm
09:30 PM 98.2°F36.8°C 41.0°F5.0°C 14% 0.5 mph SSW0.8 kmh SSW 4.0 mph6.4 kmh 29.84 in1010.5 mb 0.00 in0.0 mm 0.00 in0.0 mm 0.00 in0.0 mm
09:40 PM 97.4°F36.3°C 43.0°F6.1°C 15% 1.3 mph SW2.1 kmh SW 2.0 mph3.2 kmh 29.84 in1010.5 mb 0.00 in0.0 mm 0.00 in0.0 mm 0.00 in0.0 mm
09:50 PM 97.0°F36.1°C 42.0°F5.6°C 15% 1.1 mph S1.8 kmh S 2.0 mph3.2 kmh 29.84 in1010.5 mb 0.00 in0.0 mm 0.00 in0.0 mm 0.00 in0.0 mm
10:00 PM 96.6°F35.9°C 42.0°F5.6°C 15% 1.3 mph S2.1 kmh S 3.0 mph4.8 kmh 29.84 in1010.5 mb 0.00 in0.0 mm 0.00 in0.0 mm 0.00 in0.0 mm
10:10 PM 96.1°F35.6°C 43.0°F6.1°C 16% 0.6 mph SW1.0 kmh SW 3.0 mph4.8 kmh 29.84 in1010.5 mb 0.00 in0.0 mm 0.00 in0.0 mm 0.00 in0.0 mm
10:20 PM 96.1°F35.6°C 43.0°F6.1°C 16% 1.2 mph S1.9 kmh S 4.0 mph6.4 kmh 29.84 in1010.5 mb 0.00 in0.0 mm 0.00 in0.0 mm 0.00 in0.0 mm
10:30 PM 96.1°F35.6°C 45.0°F7.2°C 17% 0.9 mph SW1.4 kmh SW 5.0 mph8.0 kmh 29.84 in1010.5 mb 0.00 in0.0 mm 0.00 in0.0 mm 0.00 in0.0 mm
10:40 PM 95.7°F35.4°C 44.0°F6.7°C 17% 0.3 mph SW0.5 kmh SW 3.0 mph4.8 kmh 29.84 in1010.5 mb 0.00 in0.0 mm 0.00 in0.0 mm 0.00 in0.0 mm
10:50 PM 95.1°F35.1°C 45.0°F7.2°C 18% 0.2 mph SSW0.3 kmh SSW 2.0 mph3.2 kmh 29.84 in1010.5 mb 0.00 in0.0 mm 0.00 in0.0 mm 0.00 in0.0 mm
11:02 PM 94.2°F34.6°C 46.0°F7.8°C 19% Calm Calm -- 29.84 in1010.5 mb 0.00 in0.0 mm 0.00 in0.0 mm 0.00 in0.0 mm
11:10 PM 93.8°F34.3°C 47.0°F8.3°C 20% Calm Calm 1.0 mph1.6 kmh 29.84 in1010.5 mb 0.00 in0.0 mm 0.00 in0.0 mm 0.00 in0.0 mm
11:20 PM 93.4°F34.1°C 48.0°F8.9°C 21% Calm Calm 1.0 mph1.6 kmh 29.84 in1010.5 mb 0.00 in0.0 mm 0.00 in0.0 mm 0.00 in0.0 mm
11:30 PM 93.4°F34.1°C 49.0°F9.4°C 22% 0.9 mph SW1.4 kmh SW 4.0 mph6.4 kmh 29.84 in1010.5 mb 0.00 in0.0 mm 0.00 in0.0 mm 0.00 in0.0 mm
11:40 PM 92.6°F33.7°C 50.0°F10.0°C 23% Calm Calm 1.0 mph1.6 kmh 29.84 in1010.5 mb 0.00 in0.0 mm 0.00 in0.0 mm 0.00 in0.0 mm
11:50 PM 91.9°F33.3°C 49.0°F9.4°C 23% 0.3 mph N0.5 kmh N 1.0 mph1.6 kmh 29.84 in1010.5 mb 0.00 in0.0 mm 0.00 in0.0 mm 0.00 in0.0 mm